Latest Coastal Weather Observations for Albion Park

IDN60701

Issued at 12:31 pm EST Wednesday 2 September 2015 (issued every 10 minutes, with the page automatically refreshed every 10 minutes)

About coastal observations | Map of coastal stations | Coastal observations for NSW | Marine services | Other Formats
Station Details ID: 068241 Name: WOLLONGONG AIRPORT Lat: -34.56 Lon: 150.79 Height: 8.0 m
Data from the previous 72 hours. | See also: Recent months at Albion Park
Date/Time
EST
Temp

°C
Wind Pressure Rain
since 9am
mm
Weather Cloud Vis
km
Sea
Height
m
Swell
Dir
 
Speed
knots
Gust
knots
hPa Trend Height
m
Period
s
Dir
02/12:00pm 18.4 N 10 15 1014.7 - 0.0 - Cloudy 10 - - - -
02/11:30am 18.0 NNW 8 11 1015.3 - 0.0 - - 10 - - - -
02/11:00am 17.8 NNW 8 11 1015.9 - 0.0 - - 10 - - - -
02/10:30am 17.3 N 9 13 1016.4 - 0.0 - - 10 - - - -
02/10:00am 16.2 NW 6 10 1016.7 - 0.0 - - 10 - - - -
02/09:30am 14.9 NW 4 5 1017.1 - 0.0 - - 10 - - - -
02/09:00am 13.3 WSW 3 4 1017.2 - 0.0 - Mostly cloudy 10 - - - -
02/08:30am 13.1 NNW 1 3 1017.3 - 0.0 - - 10 - - - -
02/08:00am 10.3 E 2 4 1017.3 - 0.0 - - 10 - - - -
02/07:30am 6.9 S 4 5 1017.3 - 0.0 - - 10 - - - -
02/07:00am 4.2 CALM 0 0 1017.0 - 0.0 - - 10 - - - -
02/06:30am 3.5 S 1 3 1017.0 - 0.0 - - 10 - - - -
02/06:00am 3.9 SSE 1 4 1016.8 - 0.0 - Partly cloudy 10 - - - -
02/05:30am 4.1 CALM 0 0 1016.5 - 0.0 - - 10 - - - -
02/05:00am 4.4 CALM 0 3 1016.0 - 0.0 - - 10 - - - -
02/04:30am 4.5 ENE 2 4 1016.0 - 0.0 - - 10 - - - -
02/04:00am 4.1 CALM 0 3 1016.2 - 0.0 - - 10 - - - -
02/03:30am 4.1 CALM 0 0 1016.1 - 0.0 - - 10 - - - -
02/03:00am 3.9 CALM 0 0 1016.3 - 0.0 - - 10 - - - -
02/02:30am 4.3 SSW 3 4 1016.5 - 0.0 - - 10 - - - -
02/02:00am 5.1 CALM 0 0 1016.7 - 0.0 - - 10 - - - -
02/01:30am 4.6 CALM 0 0 1016.6 - 0.0 - - 10 - - - -
02/01:00am 5.1 CALM 0 0 1016.8 - 0.0 - - 10 - - - -
02/12:30am 5.1 S 2 4 1016.8 - 0.0 - - 10 - - - -
02/12:00am 5.7 WNW 3 5 1016.7 - 0.0 - - 10 - - - -
 
Date/Time
EST
Temp

°C
Wind Pressure Rain
since 9am
mm
Weather Cloud Vis
km
Sea
Height
m
Swell
Dir
 
Speed
knots
Gust
knots
hPa Trend Height
m
Period
s
Dir
01/11:30pm 5.6 SSW 1 4 1016.6 - 0.0 - - 10 - - - -
01/11:00pm 5.3 W 5 6 1016.5 - 0.0 - - 10 - - - -
01/10:30pm 6.3 CALM 0 3 1016.5 - 0.0 - - 10 - - - -
01/10:00pm 5.9 WSW 4 5 1016.3 - 0.0 - - 10 - - - -
01/09:30pm 6.6 W 5 5 1016.2 - 0.0 - - 10 - - - -
01/09:01pm 7.4 W 2 11 1015.9 - 0.0 - - 10 - - - -
01/09:00pm 15.8 W 2 11 1020.0 - 0.0 - - 10 - - - -
01/08:30pm 7.7 W 4 5 1015.7 - 0.0 - - 10 - - - -
01/08:00pm 8.0 W 3 5 1015.5 - 0.0 - - 10 - - - -
01/07:30pm 9.1 W 5 6 1015.3 - 0.0 - - 10 - - - -
01/07:00pm 9.2 W 5 6 1015.0 - 0.0 - - 10 - - - -
01/06:30pm 10.0 W 4 5 1014.6 - 0.0 - - 10 - - - -
01/06:00pm 12.0 WSW 4 5 1014.2 - 0.0 - - 10 - - - -
01/05:30pm 14.0 NE 4 5 1013.8 - 0.0 - - 10 - - - -
01/05:00pm 15.7 NNE 4 5 1013.5 - 0.0 - - 10 - - - -
01/04:30pm 16.2 ENE 5 7 1013.4 - 0.0 - - 10 - - - -
01/04:00pm 16.4 E 5 8 1013.3 - 0.0 - - 10 - - - -
01/03:30pm 16.3 NE 8 10 1013.3 - 0.0 - - 10 - - - -
01/03:00pm 16.7 NE 8 10 1013.3 - 0.0 - - 10 - - - -
01/02:30pm 16.9 E 8 11 1013.2 - 0.0 - - 10 - - - -
01/02:00pm 17.7 NE 9 12 1013.2 - 0.0 - - 10 - - - -
01/01:30pm 17.0 NE 10 12 1013.2 - 0.0 - - 10 - - - -
01/01:00pm 16.8 NE 10 13 1013.5 - 0.0 - - 10 - - - -
01/12:30pm 17.2 S 4 6 1014.0 - 0.0 - - 10 - - - -
01/12:00pm 16.6 SE 4 6 1014.5 - 0.0 - - 10 - - - -
01/11:30am 15.8 SE 4 7 1015.0 - 0.0 - - 10 - - - -
01/11:00am 15.3 WNW 4 6 1015.1 - 0.0 - - 10 - - - -
01/10:30am 14.7 SW 3 7 1015.4 - 0.0 - - 10 - - - -
01/10:00am 14.1 WSW 7 11 1015.6 - 0.0 - - 10 - - - -
01/09:30am 13.7 W 7 9 1015.7 - 0.0 - Partly cloudy 10 - - - -
01/09:00am 13.3 WSW 7 11 1015.7 - 0.0 - - 10 - - - -
01/08:30am 12.3 WSW 10 15 1015.7 - 0.0 - - 10 - - - -
01/08:00am 11.7 W 11 16 1015.7 - 0.0 - - 10 - - - -
01/07:30am 10.9 WSW 12 16 1015.6 - 0.0 - - 10 - - - -
01/07:00am 9.8 WSW 12 15 1015.3 - 0.0 - - 10 - - - -
01/06:30am 8.7 W 11 14 1015.1 - 0.0 - - 10 - - - -
01/06:00am 9.3 W 13 15 1014.8 - 0.0 - - 10 - - - -
01/05:30am 8.5 SW 3 5 1014.7 - 0.0 - - 10 - - - -
01/05:00am 9.6 WSW 12 15 1014.3 - 0.0 - - 10 - - - -
01/04:30am 9.9 WSW 11 14 1014.3 - 0.0 - - 10 - - - -
01/04:00am 10.0 WSW 13 16 1014.4 - 0.0 - - 10 - - - -
01/03:30am 9.9 WSW 12 14 1014.3 - 0.0 - - 10 - - - -
01/03:00am 10.5 WSW 10 15 1014.5 - 0.0 - - 10 - - - -
01/02:30am 10.7 W 8 13 1014.4 - 0.0 - - 10 - - - -
01/02:00am 10.9 W 9 12 1014.9 - 0.0 - - 10 - - - -
01/01:30am 11.4 WNW 5 8 1015.2 - 0.0 - Partly cloudy 10 - - - -
01/01:00am 11.5 W 5 9 1015.3 - 0.0 - - 10 - - - -
01/12:30am 11.6 WSW 10 15 1015.3 - 0.0 - - 10 - - - -
01/12:00am 11.7 WSW 9 12 1015.3 - 0.0 - - 10 - - - -
 
Date/Time
EST
Temp

°C
Wind Pressure Rain
since 9am
mm
Weather Cloud Vis
km
Sea
Height
m
Swell
Dir
 
Speed
knots
Gust
knots
hPa Trend Height
m
Period
s
Dir
31/11:30pm 12.0 WSW 9 11 1015.2 - 0.0 - Cloudy 10 - - - -
31/11:00pm 12.3 WSW 12 17 1015.3 - 0.0 - Partly cloudy 10 - - - -
31/10:30pm 9.2 SSE 3 7 1015.5 - 0.0 - Partly cloudy 10 - - - -
31/10:00pm 8.8 NW 3 4 1015.7 - 0.0 - - 10 - - - -
31/09:30pm 9.5 W 1 5 1015.8 - 0.0 - Cloudy 10 - - - -
31/09:00pm 9.2 WSW 5 7 1015.8 - 0.0 - Mostly cloudy 10 - - - -
31/08:30pm 9.4 W 6 7 1015.7 - 0.0 - Partly cloudy 10 - - - -
31/08:00pm 8.7 WSW 7 8 1015.7 - 0.0 - - 10 - - - -
31/07:30pm 9.2 WSW 4 6 1015.5 - 0.0 - - 10 - - - -
31/07:00pm 10.1 WSW 5 7 1015.1 - 0.0 - - 10 - - - -
31/06:30pm 11.9 WSW 4 7 1014.9 - 0.0 - - 10 - - - -
31/06:00pm 13.1 SSW 7 9 1014.6 - 0.0 - - 10 - - - -
31/05:30pm 14.2 SSE 8 11 1014.4 - 0.0 - - 10 - - - -
31/05:00pm 14.6 SSE 8 12 1014.1 - 0.0 - - 10 - - - -
31/04:30pm 15.7 SSE 9 14 1013.9 - 0.0 - - 10 - - - -
31/04:00pm 16.4 SSE 10 16 1013.8 - 0.0 - - 10 - - - -
31/03:30pm 16.6 SSE 10 14 1013.8 - 0.0 - - 10 - - - -
31/03:00pm 16.8 SE 9 15 1013.9 - 0.0 - Mostly clear 10 - - - -
31/02:30pm 17.4 SE 7 11 1014.1 - 0.0 - Partly cloudy 10 - - - -
31/02:00pm 17.9 SSW 8 11 1014.3 - 0.0 - Partly cloudy 10 - - - -
31/01:30pm 17.9 SW 7 11 1014.7 - 0.0 - - 10 - - - -
31/01:00pm 17.6 WSW 8 14 1015.0 - 0.0 - - 10 - - - -
31/12:30pm 17.4 WSW 11 16 1015.4 - 0.0 - - 10 - - - -
31/12:00pm 17.1 WSW 8 12 1015.8 - 0.0 - - 10 - - - -
31/11:30am 16.2 W 9 15 1016.2 - 0.0 - - 10 - - - -
31/11:00am 15.8 SSW 11 15 1016.7 - 0.0 - Partly cloudy 10 - - - -
31/10:30am 15.4 S 11 16 1016.9 - 0.0 - - 10 - - - -
31/10:00am 14.8 SSW 12 18 1017.1 - 0.0 - - 10 - - - -
31/09:30am 14.1 SSW 11 17 1017.4 - 0.0 - - 10 - - - -
31/09:00am 13.9 SW 9 13 1017.5 - 0.0 - - 10 - - - -
31/08:30am 12.8 SW 7 10 1017.5 - 0.0 - - 10 - - - -
31/08:00am 11.1 WNW 6 8 1017.5 - 0.0 - - 10 - - - -
31/07:30am 8.3 CALM 0 0 1017.6 - 0.0 - - 10 - - - -
31/07:00am 6.3 CALM 0 0 1017.5 - 0.0 - - 10 - - - -
31/06:30am 5.3 WSW 2 4 1017.3 - 0.0 - - 10 - - - -
31/06:00am 5.1 CALM 0 3 1017.2 - 0.0 - - 10 - - - -
31/05:30am 5.6 NW 2 4 1017.0 - 0.0 - - 10 - - - -
31/05:00am 5.2 SSW 3 6 1017.0 - 0.0 - - 10 - - - -
31/04:30am 5.5 WSW 5 6 1017.0 - 0.0 - - 10 - - - -
31/04:00am 5.5 WSW 5 7 1017.1 - 0.0 - - 10 - - - -
31/03:30am 6.0 SW 1 6 1017.1 - 0.0 - - 10 - - - -
31/03:00am 7.5 CALM 0 0 1017.3 - 0.0 - - 10 - - - -
31/02:30am 8.2 NNW 4 6 1017.6 - 0.0 - - 10 - - - -
31/02:00am 9.6 NW 6 7 1018.0 - 0.0 - - 10 - - - -
31/01:30am 9.6 NNW 6 8 1018.4 - 0.0 - - 10 - - - -
31/01:00am 10.5 WSW 4 5 1018.6 - 0.0 - - 10 - - - -
31/12:30am 12.3 SSW 11 15 1018.8 - 0.0 - - 10 - - - -
31/12:00am 12.6 SSW 13 18 1018.8 - 0.0 - - 10 - - - -
 
Date/Time
EST
Temp

°C
Wind Pressure Rain
since 9am
mm
Weather Cloud Vis
km
Sea
Height
m
Swell
Dir
 
Speed
knots
Gust
knots
hPa Trend Height
m
Period
s
Dir
30/11:30pm 12.9 SSW 9 13 1018.8 - 0.0 - Partly cloudy 10 - - - -
30/11:00pm 12.6 WSW 6 11 1018.8 - 0.0 - Cloudy 10 - - - -
30/10:30pm 12.1 W 5 9 1019.0 - 0.0 - Partly cloudy 10 - - - -
30/10:00pm 12.6 WNW 8 11 1019.1 - 0.0 - Partly cloudy 10 - - - -
30/09:30pm 12.8 W 9 11 1019.1 - 0.0 - Partly cloudy 10 - - - -
30/09:00pm 12.7 W 6 9 1019.3 - 0.0 - Cloudy 10 - - - -
30/08:30pm 13.0 W 7 8 1019.2 - 0.0 - Partly cloudy 10 - - - -
30/08:00pm 13.3 WSW 5 7 1019.0 - 0.0 - Cloudy 10 - - - -
30/07:30pm 13.5 SW 6 9 1019.0 - 0.0 - Cloudy 10 - - - -
30/07:00pm 13.6 SSW 6 9 1018.9 - 0.0 - Partly cloudy 10 - - - -
30/06:30pm 13.6 S 8 12 1018.6 - 0.0 - Partly cloudy 10 - - - -
30/06:00pm 13.9 SSE 8 12 1018.3 - 0.0 - Mostly cloudy 10 - - - -
30/05:30pm 14.3 SSE 7 10 1017.9 - 0.0 - Partly cloudy 10 - - - -
30/05:00pm 15.0 SSE 7 9 1017.8 - 0.0 - Partly cloudy 10 - - - -
30/04:30pm 15.4 SE 8 13 1017.5 - 0.0 - Partly cloudy 10 - - - -
30/04:00pm 15.6 SE 9 12 1017.5 - 0.0 - Partly cloudy 10 - - - -
30/03:30pm 15.8 SSE 9 14 1017.6 - 0.0 - Partly cloudy 10 - - - -
30/03:00pm 16.0 SSE 10 13 1017.7 - 0.0 - Cloudy 10 - - - -
30/02:30pm 15.6 SSE 10 18 1017.8 - 0.0 - Partly cloudy 10 - - - -
30/02:00pm 17.1 SSW 12 17 1017.9 - 0.0 - Partly cloudy 10 - - - -
30/01:30pm 17.0 S 8 15 1017.9 - 0.0 - Cloudy 10 - - - -
30/01:00pm 16.3 S 11 14 1018.3 - 0.0 - Cloudy 10 - - - -

Other Formats:

Comma delimited format used in spreadsheet applications
http://www.bom.gov.au/fwo/IDN60701/IDN60701.95748.axf

JavaScript Object Notation format (JSON) in row-major order
http://www.bom.gov.au/fwo/IDN60701/IDN60701.95748.json